Mary Lynn — WDF4973 — position and weather

sailwx.info

Track history (hours):
 
Tides and Currents Weather Stations Pressure Air Temp Water Temp Dewpoint Dewpoint Depression Visibility Wind Speed Wind Dir Waves Ship Positions

Mary Lynn

Owner: MO River Towing, LLC, Brunswick, MO. More information available from US FCC via Universal Licensing System and Coast Guard Vessel Documentation Center.

Last reported at 2018-Apr-24 02:00 UTC. Time now 2018-Apr-24 16:42 UTC.
Position N 38°39' W 090°44'.

Length 50 m.

Type: Towing. MMSI: 367457930.

Date/timePositionNaut miles runAvg speedWind from/ knotsBaromVisibWave heightAir tempDewpointWater temp
2018-Apr-24 02:00N 38°39' W 090°44'3 2.8
2018-Apr-24 01:02N 38°41' W 090°41'3 3.0
2018-Apr-24 00:07N 38°42' W 090°38'1 3.0
2018-Apr-23 23:55N 38°41' W 090°37'1 2.8
2018-Apr-23 23:30N 38°41' W 090°36'2 3.0
2018-Apr-23 23:00N 38°41' W 090°34'1 2.7
2018-Apr-23 22:30N 38°41' W 090°32'2 3.1
2018-Apr-23 22:01N 38°43' W 090°32'1 2.5
2018-Apr-23 21:30N 38°44' W 090°32'2 3.1
2018-Apr-23 21:01N 38°45' W 090°30'2 3.3
2018-Apr-23 20:31N 38°46' W 090°29'2 3.5
2018-Apr-23 20:00N 38°48' W 090°28'1 2.8
2018-Apr-23 19:30N 38°49' W 090°27'1 2.5
2018-Apr-23 19:00N 38°50' W 090°26'2 3.5
2018-Apr-23 18:30N 38°49' W 090°24'2 2.7
2018-Apr-23 17:37N 38°50' W 090°21'0 3.5
2018-Apr-23 17:31N 38°51' W 090°21'2 3.2
2018-Apr-23 17:01N 38°52' W 090°21'1 3.0
2018-Apr-23 16:30N 38°54' W 090°19'1 3.0
2018-Apr-23 16:01N 38°53' W 090°18'2 3.3
2018-Apr-23 15:31N 38°52' W 090°16'1 2.9
2018-Apr-23 15:01N 38°51' W 090°15'2 3.6
2018-Apr-23 14:31N 38°50' W 090°13'2 3.4
2018-Apr-23 14:00N 38°49' W 090°11'2 3.2
2018-Apr-23 13:31N 38°50' W 090°09'2 3.5
2018-Apr-23 13:01N 38°49' W 090°07'0 0.5
2018-Apr-23 12:30N 38°49' W 090°07'0 0.0
2018-Apr-23 12:01N 38°49' W 090°07'0 0.0
2018-Apr-23 11:30N 38°49' W 090°07'0 0.0
2018-Apr-23 10:55N 38°49' W 090°07'0 0.0
2018-Apr-23 10:31N 38°49' W 090°07'0 0.0
2018-Apr-23 09:59N 38°49' W 090°07'1 1.1
2018-Apr-23 09:30N 38°48' W 090°07'3 5.6
2018-Apr-23 09:01N 38°46' W 090°08'3 6.5
2018-Apr-23 08:30N 38°43' W 090°10'1 2.2
2018-Apr-23 08:01N 38°42' W 090°11'1 2.7
2018-Apr-23 07:30N 38°41' W 090°11'2 3.3
2018-Apr-23 07:01N 38°39' W 090°11'1 1.5
2018-Apr-23 06:30N 38°38' W 090°11'2 3.8
2018-Apr-23 05:59N 38°36' W 090°11'0 0.0
2018-Apr-23 04:39N 38°36' W 090°11'0 0.2
2018-Apr-23 04:16N 38°36' W 090°11'0 0.1
2018-Apr-23 03:59N 38°36' W 090°11'0 0.0
2018-Apr-23 03:24N 38°36' W 090°11'0 0.1
2018-Apr-23 02:50N 38°36' W 090°11'0 0.1
2018-Apr-23 02:30N 38°36' W 090°11'0 0.0
2018-Apr-23 02:00N 38°36' W 090°11'1 1.7
2018-Apr-23 01:22N 38°35' W 090°12'0 0.7
2018-Apr-23 00:39N 38°36' W 090°12'0 0.1
2018-Apr-23 00:22N 38°36' W 090°12'0 0.2
2018-Apr-22 23:59N 38°36' W 090°12'4 7.7
2018-Apr-22 23:30N 38°40' W 090°11'3 5.1
2018-Apr-22 23:00N 38°42' W 090°11'1 2.5
2018-Apr-22 22:30N 38°43' W 090°10'3 6.8
2018-Apr-22 22:00N 38°46' W 090°08'3 5.4
2018-Apr-22 21:30N 38°49' W 090°07'3 6.7
2018-Apr-22 21:00N 38°49' W 090°11'4 7.9
2018-Apr-22 20:30N 38°51' W 090°16'4 7.5
2018-Apr-22 20:00N 38°54' W 090°19'5 7.2
2018-Apr-22 19:20N 38°49' W 090°22'3 7.9
2018-Apr-22 19:01N 38°50' W 090°26'3 5.7
2018-Apr-22 18:30N 38°48' W 090°28'4 7.4
2018-Apr-22 18:00N 38°45' W 090°31'3 5.9
2018-Apr-22 17:31N 38°42' W 090°32'3 5.8
2018-Apr-22 17:00N 38°41' W 090°35'4 7.1
2018-Apr-22 16:27N 38°41' W 090°40'3 7.3
2018-Apr-22 15:59N 38°39' W 090°44'  
2018-Apr-16 20:54N 38°41' W 090°37'1 2.8
2018-Apr-16 20:31N 38°41' W 090°36'2 3.1
2018-Apr-16 20:00N 38°41' W 090°34'1 2.9
2018-Apr-16 19:31N 38°41' W 090°32'2 3.4
2018-Apr-16 19:00N 38°43' W 090°32'1 2.4
2018-Apr-16 18:31N 38°44' W 090°31'2 3.5
2018-Apr-16 18:01N 38°45' W 090°29'1 2.5
2018-Apr-16 17:31N 38°46' W 090°29'0 0.0
2018-Apr-16 17:01N 38°46' W 090°29'0 0.0
2018-Apr-16 16:31N 38°46' W 090°29'2 3.1
2018-Apr-16 16:01N 38°48' W 090°28'1 2.9
2018-Apr-16 15:31N 38°49' W 090°27'1 2.4
2018-Apr-16 15:01N 38°50' W 090°26'2 3.4
2018-Apr-16 14:31N 38°49' W 090°24'2 2.6
2018-Apr-16 13:34N 38°50' W 090°21'0 3.4
2018-Apr-16 13:31N 38°51' W 090°21'2 3.3
2018-Apr-16 13:01N 38°52' W 090°21'2 3.1
2018-Apr-16 12:31N 38°54' W 090°20'2 3.0
2018-Apr-16 12:01N 38°53' W 090°18'2 3.3
2018-Apr-16 11:30N 38°52' W 090°16'1 3.0
2018-Apr-16 11:01N 38°51' W 090°15'2 3.3
2018-Apr-16 10:30N 38°50' W 090°13'2 3.2
2018-Apr-16 10:01N 38°49' W 090°12'1 2.5
2018-Apr-16 09:30N 38°49' W 090°10'1 2.8
2018-Apr-16 08:59N 38°50' W 090°08'1 2.3
2018-Apr-16 08:30N 38°49' W 090°07'0 0.2
2018-Apr-16 08:00N 38°49' W 090°07'0 0.0
2018-Apr-16 07:27N 38°49' W 090°07'0 0.1
2018-Apr-16 07:01N 38°49' W 090°07'2 3.9
2018-Apr-16 06:30N 38°47' W 090°08'2 4.6
2018-Apr-16 06:01N 38°45' W 090°09'2 4.3
2018-Apr-16 05:30N 38°43' W 090°10'1 2.6
2018-Apr-16 05:00N 38°42' W 090°11'0 0.4
2018-Apr-16 04:30N 38°42' W 090°11'1 1.9
2018-Apr-16 04:01N 38°41' W 090°11'1 2.7
2018-Apr-16 03:31N 38°40' W 090°11'1 1.4
2018-Apr-16 03:00N 38°39' W 090°11'0 0.1
2018-Apr-16 02:30N 38°39' W 090°11'0 0.1
2018-Apr-16 02:00N 38°39' W 090°11'0 0.3
2018-Apr-16 01:30N 38°39' W 090°11'7 1.1
2018-Apr-15 19:07N 38°33' W 090°15'1 5.5
2018-Apr-15 18:57N 38°32' W 090°15'0 0.3
2018-Apr-15 18:27N 38°32' W 090°16'0 0.4
2018-Apr-15 18:00N 38°32' W 090°15'1 0.4
2018-Apr-15 16:09N 38°33' W 090°15'4 9.9
2018-Apr-15 15:48N 38°35' W 090°12'0 1.1
2018-Apr-15 15:29N 38°36' W 090°12'1 0.4
2018-Apr-15 13:56N 38°36' W 090°12'1 0.4
2018-Apr-15 11:40N 38°35' W 090°12'1 7.4
2018-Apr-15 11:30N 38°36' W 090°11'4 8.6
2018-Apr-15 11:01N 38°41' W 090°11'2 3.0
2018-Apr-15 10:31N 38°42' W 090°11'1 1.6
2018-Apr-15 10:01N 38°43' W 090°10'2 4.9
2018-Apr-15 09:31N 38°45' W 090°09'3 5.0
2018-Apr-15 09:01N 38°47' W 090°07'2 4.6
2018-Apr-15 08:30N 38°49' W 090°08'4 7.3
2018-Apr-15 08:01N 38°50' W 090°12'4 7.8
2018-Apr-15 07:31N 38°52' W 090°16'3 6.5
2018-Apr-15 07:01N 38°53' W 090°20'4 7.6
2018-Apr-15 06:29N 38°49' W 090°22'4 7.5
2018-Apr-15 06:01N 38°49' W 090°27'4 8.1
2018-Apr-15 05:31N 38°46' W 090°29'3 6.5
2018-Apr-15 05:00N 38°43' W 090°32'3 5.5
2018-Apr-15 04:30N 38°41' W 090°34'8 6.9
2018-Apr-15 03:22N 38°40' W 090°44'  
Track history (hours):
 
Tides and Currents Weather Stations Pressure Air Temp Water Temp Dewpoint Dewpoint Depression Visibility Wind Speed Wind Dir Waves Ship Positions

Mary Lynn

Owner: MO River Towing, LLC, Brunswick, MO. More information available from US FCC via Universal Licensing System and Coast Guard Vessel Documentation Center.

Last reported at 2018-Apr-24 02:00 UTC. Time now 2018-Apr-24 16:42 UTC.
Position N 38°39' W 090°44'.

Length 50 m.

Type: Towing. MMSI: 367457930.

Date/timePositionNaut miles runAvg speedWind from/ knotsBaromVisibWave heightAir tempDewpointWater temp
2018-Apr-24 02:00N 38°39' W 090°44'3 2.8
2018-Apr-24 01:02N 38°41' W 090°41'3 3.0
2018-Apr-24 00:07N 38°42' W 090°38'1 3.0
2018-Apr-23 23:55N 38°41' W 090°37'1 2.8
2018-Apr-23 23:30N 38°41' W 090°36'2 3.0
2018-Apr-23 23:00N 38°41' W 090°34'1 2.7
2018-Apr-23 22:30N 38°41' W 090°32'2 3.1
2018-Apr-23 22:01N 38°43' W 090°32'1 2.5
2018-Apr-23 21:30N 38°44' W 090°32'2 3.1
2018-Apr-23 21:01N 38°45' W 090°30'2 3.3
2018-Apr-23 20:31N 38°46' W 090°29'2 3.5
2018-Apr-23 20:00N 38°48' W 090°28'1 2.8
2018-Apr-23 19:30N 38°49' W 090°27'1 2.5
2018-Apr-23 19:00N 38°50' W 090°26'2 3.5
2018-Apr-23 18:30N 38°49' W 090°24'2 2.7
2018-Apr-23 17:37N 38°50' W 090°21'0 3.5
2018-Apr-23 17:31N 38°51' W 090°21'2 3.2
2018-Apr-23 17:01N 38°52' W 090°21'1 3.0
2018-Apr-23 16:30N 38°54' W 090°19'1 3.0
2018-Apr-23 16:01N 38°53' W 090°18'2 3.3
2018-Apr-23 15:31N 38°52' W 090°16'1 2.9
2018-Apr-23 15:01N 38°51' W 090°15'2 3.6
2018-Apr-23 14:31N 38°50' W 090°13'2 3.4
2018-Apr-23 14:00N 38°49' W 090°11'2 3.2
2018-Apr-23 13:31N 38°50' W 090°09'2 3.5
2018-Apr-23 13:01N 38°49' W 090°07'0 0.5
2018-Apr-23 12:30N 38°49' W 090°07'0 0.0
2018-Apr-23 12:01N 38°49' W 090°07'0 0.0
2018-Apr-23 11:30N 38°49' W 090°07'0 0.0
2018-Apr-23 10:55N 38°49' W 090°07'0 0.0
2018-Apr-23 10:31N 38°49' W 090°07'0 0.0
2018-Apr-23 09:59N 38°49' W 090°07'1 1.1
2018-Apr-23 09:30N 38°48' W 090°07'3 5.6
2018-Apr-23 09:01N 38°46' W 090°08'3 6.5
2018-Apr-23 08:30N 38°43' W 090°10'1 2.2
2018-Apr-23 08:01N 38°42' W 090°11'1 2.7
2018-Apr-23 07:30N 38°41' W 090°11'2 3.3
2018-Apr-23 07:01N 38°39' W 090°11'1 1.5
2018-Apr-23 06:30N 38°38' W 090°11'2 3.8
2018-Apr-23 05:59N 38°36' W 090°11'0 0.0
2018-Apr-23 04:39N 38°36' W 090°11'0 0.2
2018-Apr-23 04:16N 38°36' W 090°11'0 0.1
2018-Apr-23 03:59N 38°36' W 090°11'0 0.0
2018-Apr-23 03:24N 38°36' W 090°11'0 0.1
2018-Apr-23 02:50N 38°36' W 090°11'0 0.1
2018-Apr-23 02:30N 38°36' W 090°11'0 0.0
2018-Apr-23 02:00N 38°36' W 090°11'1 1.7
2018-Apr-23 01:22N 38°35' W 090°12'0 0.7
2018-Apr-23 00:39N 38°36' W 090°12'0 0.1
2018-Apr-23 00:22N 38°36' W 090°12'0 0.2
2018-Apr-22 23:59N 38°36' W 090°12'4 7.7
2018-Apr-22 23:30N 38°40' W 090°11'3 5.1
2018-Apr-22 23:00N 38°42' W 090°11'1 2.5
2018-Apr-22 22:30N 38°43' W 090°10'3 6.8
2018-Apr-22 22:00N 38°46' W 090°08'3 5.4
2018-Apr-22 21:30N 38°49' W 090°07'3 6.7
2018-Apr-22 21:00N 38°49' W 090°11'4 7.9
2018-Apr-22 20:30N 38°51' W 090°16'4 7.5
2018-Apr-22 20:00N 38°54' W 090°19'5 7.2
2018-Apr-22 19:20N 38°49' W 090°22'3 7.9
2018-Apr-22 19:01N 38°50' W 090°26'3 5.7
2018-Apr-22 18:30N 38°48' W 090°28'4 7.4
2018-Apr-22 18:00N 38°45' W 090°31'3 5.9
2018-Apr-22 17:31N 38°42' W 090°32'3 5.8
2018-Apr-22 17:00N 38°41' W 090°35'4 7.1
2018-Apr-22 16:27N 38°41' W 090°40'3 7.3
2018-Apr-22 15:59N 38°39' W 090°44'  
2018-Apr-16 20:54N 38°41' W 090°37'1 2.8
2018-Apr-16 20:31N 38°41' W 090°36'2 3.1
2018-Apr-16 20:00N 38°41' W 090°34'1 2.9
2018-Apr-16 19:31N 38°41' W 090°32'2 3.4
2018-Apr-16 19:00N 38°43' W 090°32'1 2.4
2018-Apr-16 18:31N 38°44' W 090°31'2 3.5
2018-Apr-16 18:01N 38°45' W 090°29'1 2.5
2018-Apr-16 17:31N 38°46' W 090°29'0 0.0
2018-Apr-16 17:01N 38°46' W 090°29'0 0.0
2018-Apr-16 16:31N 38°46' W 090°29'2 3.1
2018-Apr-16 16:01N 38°48' W 090°28'1 2.9
2018-Apr-16 15:31N 38°49' W 090°27'1 2.4
2018-Apr-16 15:01N 38°50' W 090°26'2 3.4
2018-Apr-16 14:31N 38°49' W 090°24'2 2.6
2018-Apr-16 13:34N 38°50' W 090°21'0 3.4
2018-Apr-16 13:31N 38°51' W 090°21'2 3.3
2018-Apr-16 13:01N 38°52' W 090°21'2 3.1
2018-Apr-16 12:31N 38°54' W 090°20'2 3.0
2018-Apr-16 12:01N 38°53' W 090°18'2 3.3
2018-Apr-16 11:30N 38°52' W 090°16'1 3.0
2018-Apr-16 11:01N 38°51' W 090°15'2 3.3
2018-Apr-16 10:30N 38°50' W 090°13'2 3.2
2018-Apr-16 10:01N 38°49' W 090°12'1 2.5
2018-Apr-16 09:30N 38°49' W 090°10'1 2.8
2018-Apr-16 08:59N 38°50' W 090°08'1 2.3
2018-Apr-16 08:30N 38°49' W 090°07'0 0.2
2018-Apr-16 08:00N 38°49' W 090°07'0 0.0
2018-Apr-16 07:27N 38°49' W 090°07'0 0.1
2018-Apr-16 07:01N 38°49' W 090°07'2 3.9
2018-Apr-16 06:30N 38°47' W 090°08'2 4.6
2018-Apr-16 06:01N 38°45' W 090°09'2 4.3
2018-Apr-16 05:30N 38°43' W 090°10'1 2.6
2018-Apr-16 05:00N 38°42' W 090°11'0 0.4
2018-Apr-16 04:30N 38°42' W 090°11'1 1.9
2018-Apr-16 04:01N 38°41' W 090°11'1 2.7
2018-Apr-16 03:31N 38°40' W 090°11'1 1.4
2018-Apr-16 03:00N 38°39' W 090°11'0 0.1
2018-Apr-16 02:30N 38°39' W 090°11'0 0.1
2018-Apr-16 02:00N 38°39' W 090°11'0 0.3
2018-Apr-16 01:30N 38°39' W 090°11'7 1.1
2018-Apr-15 19:07N 38°33' W 090°15'1 5.5
2018-Apr-15 18:57N 38°32' W 090°15'0 0.3
2018-Apr-15 18:27N 38°32' W 090°16'0 0.4
2018-Apr-15 18:00N 38°32' W 090°15'1 0.4
2018-Apr-15 16:09N 38°33' W 090°15'4 9.9
2018-Apr-15 15:48N 38°35' W 090°12'0 1.1
2018-Apr-15 15:29N 38°36' W 090°12'1 0.4
2018-Apr-15 13:56N 38°36' W 090°12'1 0.4
2018-Apr-15 11:40N 38°35' W 090°12'1 7.4
2018-Apr-15 11:30N 38°36' W 090°11'4 8.6
2018-Apr-15 11:01N 38°41' W 090°11'2 3.0
2018-Apr-15 10:31N 38°42' W 090°11'1 1.6
2018-Apr-15 10:01N 38°43' W 090°10'2 4.9
2018-Apr-15 09:31N 38°45' W 090°09'3 5.0
2018-Apr-15 09:01N 38°47' W 090°07'2 4.6
2018-Apr-15 08:30N 38°49' W 090°08'4 7.3
2018-Apr-15 08:01N 38°50' W 090°12'4 7.8
2018-Apr-15 07:31N 38°52' W 090°16'3 6.5
2018-Apr-15 07:01N 38°53' W 090°20'4 7.6
2018-Apr-15 06:29N 38°49' W 090°22'4 7.5
2018-Apr-15 06:01N 38°49' W 090°27'4 8.1
2018-Apr-15 05:31N 38°46' W 090°29'3 6.5
2018-Apr-15 05:00N 38°43' W 090°32'3 5.5
2018-Apr-15 04:30N 38°41' W 090°34'8 6.9
2018-Apr-15 03:22N 38°40' W 090°44'  

Dump ship's entire track history